Time;durP1;ratioP1;P1;durP2;ratioP2;P2;SDS_P1;SDS_P2;PMS_P1;PMS_P2;Temp;Humidity;BMP_temperature;BMP_pressure;BME280_temperature;BME280_humidity;BME280_pressure;Samples;Min_cycle;Max_cycle;Signal;HPM_P1;HPM_P2
2023/07/04 00:01:01;;;;;;;15.00;5.47;;;24.70;95.10;;;;;;5050859;28;20040;-77
2023/07/04 00:04:07;;;;;;;15.93;5.43;;;24.60;95.30;;;;;;5051098;28;20060;-77
2023/07/04 00:07:11;;;;;;;10.90;5.60;;;24.70;95.10;;;;;;5050547;28;20417;-77
2023/07/04 00:10:15;;;;;;;16.20;5.45;;;24.80;95.00;;;;;;5050891;28;20064;-77
2023/07/04 00:13:19;;;;;;;22.70;6.35;;;24.80;94.90;;;;;;5050619;28;20044;-77
2023/07/04 00:16:23;;;;;;;12.93;5.30;;;24.60;94.90;;;;;;5052289;28;20056;-76
2023/07/04 00:19:29;;;;;;;19.95;5.68;;;24.60;95.20;;;;;;5054495;28;20653;-76
2023/07/04 00:22:33;;;;;;;12.05;5.65;;;24.60;95.20;;;;;;5054296;28;20048;-77
2023/07/04 00:25:37;;;;;;;11.60;6.22;;;24.60;95.10;;;;;;5053205;28;20044;-77
2023/07/04 00:28:42;;;;;;;16.50;5.93;;;24.60;95.20;;;;;;5042054;28;20044;-77
2023/07/04 00:31:47;;;;;;;13.85;5.85;;;24.70;95.10;;;;;;5053598;28;20127;-77
2023/07/04 00:34:51;;;;;;;14.57;4.97;;;24.70;94.80;;;;;;5054328;28;20040;-77
2023/07/04 00:37:56;;;;;;;13.45;6.15;;;24.70;94.80;;;;;;5054307;28;20519;-77
2023/07/04 00:41:03;;;;;;;14.07;5.65;;;24.80;94.60;;;;;;5054284;28;20396;-77
2023/07/04 00:44:20;;;;;;;17.05;5.30;;;24.70;94.60;;;;;;5053265;28;20048;-77
2023/07/04 00:47:32;;;;;;;16.48;5.63;;;24.70;94.70;;;;;;5054225;28;20080;-77
2023/07/04 00:50:43;;;;;;;13.65;6.30;;;24.70;94.60;;;;;;5053304;28;20064;-77
2023/07/04 00:53:49;;;;;;;11.48;5.53;;;24.80;94.70;;;;;;5053086;28;20048;-77
2023/07/04 00:56:57;;;;;;;16.40;6.25;;;24.70;94.80;;;;;;5052926;28;20044;-77
2023/07/04 01:00:10;;;;;;;13.80;5.97;;;24.60;95.00;;;;;;5052780;28;20040;-77
2023/07/04 01:03:21;;;;;;;12.90;5.63;;;24.70;95.10;;;;;;5053683;28;20409;-77
2023/07/04 01:06:35;;;;;;;12.65;5.47;;;24.70;95.20;;;;;;5052989;28;20507;-77
2023/07/04 01:09:44;;;;;;;18.95;6.38;;;24.70;95.10;;;;;;5052512;28;20194;-77
2023/07/04 01:12:48;;;;;;;14.40;6.22;;;24.60;95.10;;;;;;5052462;28;20052;-77
2023/07/04 01:15:52;;;;;;;15.52;5.93;;;24.50;95.50;;;;;;5052473;28;20044;-77
2023/07/04 01:18:58;;;;;;;19.17;5.68;;;24.50;95.40;;;;;;5053233;28;20405;-77
2023/07/04 01:22:11;;;;;;;14.30;5.95;;;24.60;95.60;;;;;;5053298;28;20056;-77
2023/07/04 01:25:21;;;;;;;15.82;6.00;;;24.60;95.40;;;;;;5053087;28;20056;-77
2023/07/04 01:28:29;;;;;;;14.35;5.70;;;24.50;95.80;;;;;;5051722;28;20044;-78
2023/07/04 01:31:35;;;;;;;13.10;5.53;;;24.50;95.70;;;;;;5052377;28;20052;-78
2023/07/04 01:34:39;;;;;;;18.13;6.07;;;24.60;95.70;;;;;;5053307;28;20040;-78
2023/07/04 01:37:43;;;;;;;16.48;5.68;;;24.70;95.60;;;;;;5053196;28;20056;-78
2023/07/04 01:40:48;;;;;;;14.73;5.78;;;24.60;95.60;;;;;;5053104;28;20048;-78
2023/07/04 01:44:00;;;;;;;15.02;6.10;;;24.50;95.90;;;;;;5052899;28;20402;-78
2023/07/04 01:47:04;;;;;;;16.75;6.63;;;24.60;95.80;;;;;;5053318;28;20224;-77
2023/07/04 01:50:11;;;;;;;15.90;6.72;;;24.60;95.60;;;;;;5052978;28;20051;-78
2023/07/04 01:53:16;;;;;;;17.52;6.43;;;24.60;95.70;;;;;;5052331;28;20047;-78
2023/07/04 01:56:20;;;;;;;14.45;5.90;;;24.60;95.70;;;;;;5052518;28;20059;-78
2023/07/04 01:59:24;;;;;;;14.27;6.47;;;24.60;95.80;;;;;;5051722;28;20040;-76
2023/07/04 02:02:27;;;;;;;11.82;6.40;;;24.60;95.70;;;;;;5052659;28;20059;-78
2023/07/04 02:05:31;;;;;;;13.02;6.30;;;24.60;95.70;;;;;;5051757;28;20043;-78
2023/07/04 02:08:35;;;;;;;21.52;7.25;;;24.50;95.80;;;;;;5051536;28;20070;-78
2023/07/04 02:11:39;;;;;;;17.25;6.35;;;24.50;95.80;;;;;;5051491;28;20040;-77
2023/07/04 02:14:43;;;;;;;12.05;5.72;;;24.50;95.80;;;;;;5052823;28;20044;-77
2023/07/04 02:17:47;;;;;;;16.48;6.07;;;24.50;95.70;;;;;;5052448;28;20503;-77
2023/07/04 02:20:52;;;;;;;17.88;6.50;;;24.40;95.90;;;;;;5051826;28;20401;-77
2023/07/04 02:23:56;;;;;;;14.00;6.22;;;24.40;96.10;;;;;;5052191;28;20516;-77
2023/07/04 02:27:00;;;;;;;15.27;6.28;;;24.40;96.00;;;;;;5052221;28;20112;-77
2023/07/04 02:30:04;;;;;;;14.43;6.18;;;24.30;96.10;;;;;;5052003;28;20040;-78
2023/07/04 02:33:08;;;;;;;14.50;6.32;;;24.10;96.50;;;;;;5051246;28;20059;-77
2023/07/04 02:36:12;;;;;;;12.43;6.50;;;24.10;96.50;;;;;;5051111;28;20051;-77
2023/07/04 02:39:16;;;;;;;17.77;6.65;;;24.10;96.40;;;;;;5051774;28;20536;-77
2023/07/04 02:42:20;;;;;;;13.93;6.07;;;24.10;96.40;;;;;;5051816;28;20056;-77
2023/07/04 02:45:24;;;;;;;13.15;5.57;;;24.10;96.50;;;;;;5051684;28;20059;-77
2023/07/04 02:48:29;;;;;;;19.67;6.47;;;24.10;96.50;;;;;;5050614;28;20052;-77
2023/07/04 02:51:33;;;;;;;18.45;6.80;;;24.10;96.40;;;;;;5050946;28;20507;-77
2023/07/04 02:54:38;;;;;;;11.65;6.15;;;24.00;96.60;;;;;;5050539;28;20044;-77
2023/07/04 02:57:42;;;;;;;15.32;6.32;;;24.00;96.60;;;;;;5051310;28;20119;-77
2023/07/04 03:00:49;;;;;;;12.85;5.90;;;24.00;96.70;;;;;;5051315;28;20039;-77
2023/07/04 03:03:55;;;;;;;19.52;6.32;;;24.10;96.50;;;;;;5050449;28;20063;-77
2023/07/04 03:07:01;;;;;;;15.93;6.30;;;24.00;96.90;;;;;;5050499;28;20396;-77
2023/07/04 03:10:06;;;;;;;13.93;6.53;;;24.00;96.70;;;;;;5050528;28;20048;-76
2023/07/04 03:13:09;;;;;;;15.55;6.57;;;24.00;96.70;;;;;;5051290;28;20044;-76
2023/07/04 03:16:16;;;;;;;14.43;6.90;;;24.00;96.60;;;;;;5050376;28;20044;-77
2023/07/04 03:19:22;;;;;;;16.60;6.82;;;23.90;96.60;;;;;;5050218;28;20056;-77
2023/07/04 03:22:25;;;;;;;17.35;6.28;;;23.90;96.80;;;;;;5050087;28;20515;-78
2023/07/04 03:25:30;;;;;;;17.67;7.03;;;23.90;96.80;;;;;;5050506;28;20070;-78
2023/07/04 03:28:35;;;;;;;11.40;6.18;;;23.80;97.00;;;;;;5050419;28;20064;-78
2023/07/04 03:31:39;;;;;;;12.48;6.00;;;23.80;97.00;;;;;;5050455;28;20397;-78
2023/07/04 03:34:45;;;;;;;15.32;6.80;;;23.90;96.70;;;;;;5050296;28;20036;-78
2023/07/04 03:37:48;;;;;;;13.32;6.63;;;23.80;96.90;;;;;;5051023;28;20047;-78
2023/07/04 03:40:52;;;;;;;17.40;6.70;;;23.80;96.80;;;;;;5050922;28;20044;-78
2023/07/04 03:43:56;;;;;;;12.50;6.55;;;23.80;96.90;;;;;;5051041;28;20060;-78
2023/07/04 03:47:01;;;;;;;15.45;6.53;;;23.80;96.90;;;;;;5050093;28;20040;-78
2023/07/04 03:50:06;;;;;;;10.68;6.13;;;23.70;96.90;;;;;;5038860;28;20064;-77
2023/07/04 03:53:10;;;;;;;13.45;6.30;;;23.80;96.90;;;;;;5055410;28;20044;-78
2023/07/04 03:56:14;;;;;;;18.20;6.82;;;23.80;96.90;;;;;;5054306;28;20107;-77
2023/07/04 03:59:18;;;;;;;18.65;6.63;;;23.80;96.90;;;;;;5054863;28;20614;-78
2023/07/04 04:02:22;;;;;;;17.58;6.70;;;23.80;96.90;;;;;;5054061;28;20068;-77
2023/07/04 04:05:28;;;;;;;17.25;6.65;;;23.80;96.90;;;;;;5054800;28;20052;-78
2023/07/04 04:08:32;;;;;;;16.88;7.03;;;23.80;96.90;;;;;;5055145;28;20120;-79
2023/07/04 04:11:35;;;;;;;15.90;6.82;;;23.80;96.90;;;;;;5053965;28;20072;-78
2023/07/04 04:14:39;;;;;;;16.45;6.45;;;23.80;96.90;;;;;;5054546;28;20047;-77
2023/07/04 04:17:43;;;;;;;16.38;6.95;;;23.90;96.80;;;;;;5054598;28;20554;-77
2023/07/04 04:20:47;;;;;;;15.45;6.43;;;23.90;96.90;;;;;;5054753;28;20654;-77
2023/07/04 04:23:52;;;;;;;18.63;6.85;;;24.10;96.80;;;;;;5053715;28;20052;-78
2023/07/04 04:27:00;;;;;;;16.95;7.30;;;24.10;96.70;;;;;;5054616;28;20064;-78
2023/07/04 04:30:05;;;;;;;19.17;7.28;;;24.20;96.50;;;;;;5054415;28;20500;-77
2023/07/04 04:33:09;;;;;;;16.13;7.15;;;24.20;96.40;;;;;;5054366;28;20044;-78
2023/07/04 04:36:17;;;;;;;14.27;6.30;;;24.20;96.50;;;;;;5053726;28;20392;-78
2023/07/04 04:39:21;;;;;;;22.95;7.47;;;24.20;96.70;;;;;;5054321;28;20040;-78
2023/07/04 04:42:26;;;;;;;18.92;7.28;;;24.30;96.70;;;;;;5053271;28;20056;-77
2023/07/04 04:45:30;;;;;;;15.65;6.63;;;24.70;97.00;;;;;;5053423;28;20048;-78
2023/07/04 04:48:35;;;;;;;16.63;7.93;;;25.30;95.50;;;;;;5052993;28;20040;-78
2023/07/04 04:51:40;;;;;;;17.20;6.60;;;25.60;95.20;;;;;;5053764;28;20043;-78
2023/07/04 04:54:44;;;;;;;22.63;7.45;;;25.70;94.70;;;;;;5054143;28;20388;-78
2023/07/04 04:57:48;;;;;;;27.13;7.22;;;25.50;94.90;;;;;;5053692;28;20503;-76
2023/07/04 05:00:52;;;;;;;30.65;8.32;;;25.30;95.40;;;;;;5054006;28;20044;-78
2023/07/04 05:03:56;;;;;;;40.42;8.57;;;25.00;96.00;;;;;;5053608;28;20056;-77
2023/07/04 05:07:00;;;;;;;27.17;7.22;;;25.10;96.10;;;;;;5053086;28;20040;-77
2023/07/04 05:10:05;;;;;;;37.42;8.10;;;25.30;96.10;;;;;;5053418;28;20052;-78
2023/07/04 05:13:09;;;;;;;22.23;7.53;;;25.60;95.70;;;;;;5052661;28;20040;-77
2023/07/04 05:16:16;;;;;;;27.38;7.72;;;25.80;95.50;;;;;;5053565;28;20048;-77
2023/07/04 05:19:20;;;;;;;27.77;7.00;;;25.90;95.40;;;;;;5053456;28;20060;-78
2023/07/04 05:22:24;;;;;;;17.05;7.07;;;26.10;95.10;;;;;;5052524;28;20068;-80
2023/07/04 05:25:28;;;;;;;19.00;7.07;;;26.40;94.90;;;;;;5053652;28;20373;-80
2023/07/04 05:28:32;;;;;;;27.30;12.73;;;26.50;94.70;;;;;;5053568;28;20052;-77
2023/07/04 05:31:36;;;;;;;26.85;10.75;;;26.40;94.60;;;;;;5052818;28;20056;-80
2023/07/04 05:34:40;;;;;;;27.60;9.98;;;26.40;94.80;;;;;;5053535;28;20047;-79
2023/07/04 05:37:44;;;;;;;17.65;7.68;;;26.40;94.70;;;;;;5053382;28;20052;-79
2023/07/04 05:40:47;;;;;;;17.83;6.95;;;26.30;94.50;;;;;;5053224;28;20051;-79
2023/07/04 05:43:55;;;;;;;15.05;7.35;;;26.20;94.70;;;;;;5053103;28;20072;-79
2023/07/04 05:46:59;;;;;;;17.15;6.30;;;26.30;94.60;;;;;;5052216;28;20044;-81
2023/07/04 05:50:03;;;;;;;16.85;6.82;;;26.30;94.80;;;;;;5052225;28;20052;-71
2023/07/04 05:53:07;;;;;;;16.27;6.07;;;26.60;94.60;;;;;;5053014;28;20068;-75
2023/07/04 05:56:22;;;;;;;12.80;5.22;;;26.90;93.90;;;;;;5053373;28;20048;-82
2023/07/04 05:59:26;;;;;;;15.13;5.32;;;27.00;93.30;;;;;;5053200;28;20415;-84
2023/07/04 06:02:31;;;;;;;15.15;5.88;;;27.20;93.50;;;;;;5052274;28;20041;-80
2023/07/04 06:05:39;;;;;;;14.50;5.13;;;27.50;93.00;;;;;;5052713;28;20575;-80
2023/07/04 06:08:43;;;;;;;15.13;5.93;;;27.60;92.40;;;;;;5052786;28;20385;-80
2023/07/04 06:11:48;;;;;;;14.38;5.82;;;27.80;92.50;;;;;;5052472;28;20052;-81
2023/07/04 06:14:52;;;;;;;14.70;5.82;;;27.80;92.30;;;;;;5052070;28;20128;-81
2023/07/04 06:17:57;;;;;;;17.90;5.15;;;27.90;92.20;;;;;;5052781;28;20044;-77
2023/07/04 06:21:19;;;;;;;17.88;5.72;;;28.00;92.10;;;;;;5053427;28;20060;-81
2023/07/04 06:24:22;;;;;;;15.68;5.90;;;28.30;91.90;;;;;;5053183;28;20508;-79
2023/07/04 06:27:27;;;;;;;12.50;5.20;;;28.40;91.40;;;;;;5051490;28;20052;-81
2023/07/04 06:30:34;;;;;;;8.73;5.15;;;28.30;91.40;;;;;;5052720;28;20044;-79
2023/07/04 06:33:39;;;;;;;21.00;5.88;;;28.30;91.40;;;;;;5052022;28;20044;-76
2023/07/04 06:36:48;;;;;;;13.10;4.97;;;28.50;91.40;;;;;;5052519;28;20056;-78
2023/07/04 06:39:52;;;;;;;13.45;4.82;;;28.60;91.00;;;;;;5052439;28;20044;-80
2023/07/04 06:42:56;;;;;;;15.40;5.53;;;28.80;91.00;;;;;;5054653;28;20534;-82
2023/07/04 06:46:00;;;;;;;13.00;4.70;;;29.00;90.60;;;;;;5053282;28;20051;-77
2023/07/04 06:49:05;;;;;;;16.45;4.45;;;29.20;90.30;;;;;;5051803;28;20408;-81
2023/07/04 06:52:09;;;;;;;13.32;4.45;;;29.30;89.80;;;;;;5052453;28;20047;-83
2023/07/04 06:55:13;;;;;;;13.07;5.10;;;29.50;90.00;;;;;;5052351;28;20044;-74
2023/07/04 06:58:17;;;;;;;15.48;4.93;;;29.80;88.80;;;;;;5051826;28;20040;-74
2023/07/04 07:01:26;;;;;;;10.45;4.57;;;29.60;88.80;;;;;;5050569;28;20096;-77
2023/07/04 07:04:30;;;;;;;12.27;5.13;;;29.70;88.90;;;;;;5050730;28;20060;-79
2023/07/04 07:07:34;;;;;;;12.48;4.40;;;29.60;88.70;;;;;;5051116;28;20052;-79
2023/07/04 07:10:38;;;;;;;15.50;4.50;;;29.50;89.20;;;;;;5051488;28;20511;-75
2023/07/04 07:13:43;;;;;;;11.73;4.25;;;29.60;88.60;;;;;;5050757;28;20195;-80
2023/07/04 07:16:46;;;;;;;9.80;4.32;;;29.60;88.30;;;;;;5051551;28;20043;-76
2023/07/04 07:19:50;;;;;;;10.18;4.03;;;29.50;88.40;;;;;;5051094;28;20520;-77
2023/07/04 07:22:54;;;;;;;8.82;3.33;;;29.60;87.80;;;;;;5051383;28;20048;-76
2023/07/04 07:26:00;;;;;;;12.52;3.50;;;29.90;86.90;;;;;;5049914;28;20051;-79
2023/07/04 07:29:04;;;;;;;7.85;3.33;;;29.90;86.40;;;;;;5051257;28;20056;-79
2023/07/04 07:32:08;;;;;;;10.98;3.47;;;29.60;87.00;;;;;;5055252;28;20056;-77
2023/07/04 07:35:12;;;;;;;12.68;3.72;;;29.60;86.90;;;;;;5051265;28;20491;-78
2023/07/04 07:38:16;;;;;;;10.00;4.07;;;29.60;86.80;;;;;;5050682;28;20047;-77
2023/07/04 07:41:24;;;;;;;8.15;4.47;;;29.70;86.60;;;;;;5050018;28;20048;-78
2023/07/04 07:44:29;;;;;;;7.82;3.40;;;30.00;86.10;;;;;;5050836;28;20064;-78
2023/07/04 07:47:33;;;;;;;15.32;4.65;;;30.50;85.60;;;;;;5051076;28;20402;-79
2023/07/04 07:50:36;;;;;;;14.68;3.72;;;30.80;84.20;;;;;;5051200;28;20051;-79
2023/07/04 07:53:45;;;;;;;8.50;3.75;;;30.70;83.90;;;;;;5051294;28;20044;-78
2023/07/04 07:56:49;;;;;;;10.75;4.05;;;30.60;84.10;;;;;;5050953;28;20067;-78
2023/07/04 07:59:53;;;;;;;10.00;3.97;;;30.30;85.20;;;;;;5050776;28;20093;-78
2023/07/04 08:02:57;;;;;;;11.05;4.47;;;30.00;85.00;;;;;;5049817;28;20108;-78
2023/07/04 08:06:01;;;;;;;11.38;3.70;;;29.70;85.60;;;;;;5050598;28;20161;-78
2023/07/04 08:09:08;;;;;;;11.13;3.70;;;29.60;86.50;;;;;;5051025;28;20048;-79
2023/07/04 08:12:12;;;;;;;10.63;4.30;;;29.60;87.70;;;;;;5050726;28;20055;-77
2023/07/04 08:15:16;;;;;;;14.32;4.95;;;29.50;88.10;;;;;;5049564;28;20052;-82
2023/07/04 08:18:20;;;;;;;10.60;3.65;;;29.30;88.90;;;;;;5051132;28;20048;-85
2023/07/04 08:21:26;;;;;;;12.88;4.07;;;29.30;88.90;;;;;;5050284;28;20063;-83
2023/07/04 08:24:30;;;;;;;9.13;3.58;;;29.20;88.50;;;;;;5050869;28;20521;-78
2023/07/04 08:27:33;;;;;;;11.68;3.60;;;29.20;88.60;;;;;;5050725;28;20048;-81
2023/07/04 08:30:37;;;;;;;12.43;4.45;;;29.10;88.40;;;;;;5049661;28;20535;-79
2023/07/04 08:33:41;;;;;;;10.52;3.60;;;29.40;88.20;;;;;;5050585;28;20052;-80
2023/07/04 08:36:45;;;;;;;7.32;3.97;;;29.90;87.00;;;;;;5050939;28;20393;-82
2023/07/04 08:39:50;;;;;;;9.20;3.95;;;30.30;86.50;;;;;;5054145;28;20048;-84
2023/07/04 08:42:54;;;;;;;6.93;3.40;;;30.50;85.00;;;;;;5054701;28;20036;-74
2023/07/04 08:45:58;;;;;;;7.97;3.85;;;30.80;84.30;;;;;;5053943;28;20040;-77
2023/07/04 08:49:04;;;;;;;14.00;3.63;;;31.10;83.50;;;;;;5054417;28;20126;-82
2023/07/04 08:52:23;;;;;;;8.25;3.88;;;31.20;81.90;;;;;;5054445;28;20499;-82
2023/07/04 08:55:28;;;;;;;10.23;3.85;;;31.40;81.70;;;;;;5054211;28;20036;-83
2023/07/04 08:58:40;;;;;;;12.35;3.92;;;31.30;81.70;;;;;;5054681;28;20424;-77
2023/07/04 09:02:01;;;;;;;7.63;3.42;;;31.20;81.50;;;;;;5053656;28;20048;-78
2023/07/04 09:05:43;;;;;;;11.52;3.78;;;31.30;81.60;;;;;;5053572;28;20076;-75
2023/07/04 09:09:08;;;;;;;8.30;3.90;;;31.50;81.20;;;;;;5053023;28;20053;-78
2023/07/04 09:12:11;;;;;;;15.05;4.50;;;33.10;79.90;;;;;;5053902;28;20048;-77
2023/07/04 09:15:33;;;;;;;19.70;5.00;;;34.20;76.90;;;;;;5053783;28;20043;-78
2023/07/04 09:19:05;;;;;;;10.13;3.72;;;34.10;76.90;;;;;;5053468;28;20052;-75
2023/07/04 09:22:09;;;;;;;10.30;3.90;;;33.90;76.60;;;;;;5053378;28;20052;-78
2023/07/04 09:25:13;;;;;;;11.52;4.03;;;33.70;76.80;;;;;;5053401;28;20055;-84
2023/07/04 09:28:17;;;;;;;13.23;3.72;;;33.90;77.00;;;;;;5053225;28;20511;-79
2023/07/04 09:31:30;;;;;;;12.38;4.00;;;34.10;76.20;;;;;;5053856;28;20076;-81
2023/07/04 09:34:41;;;;;;;10.43;4.05;;;34.30;75.30;;;;;;5052466;28;20063;-80
2023/07/04 09:37:59;;;;;;;9.70;4.20;;;34.00;76.10;;;;;;5053360;28;20048;-76
2023/07/04 09:41:03;;;;;;;8.27;3.83;;;34.20;75.60;;;;;;5053051;28;20052;-74
2023/07/04 09:44:12;;;;;;;10.73;3.00;;;34.20;75.60;;;;;;5052004;28;20060;-77
2023/07/04 09:47:28;;;;;;;7.43;3.42;;;34.30;75.20;;;;;;5052904;28;20448;-75
2023/07/04 09:50:36;;;;;;;8.25;3.60;;;34.30;74.80;;;;;;5052483;28;20056;-76
2023/07/04 09:53:41;;;;;;;11.98;4.15;;;34.00;75.50;;;;;;5053012;28;20052;-78
2023/07/04 09:56:45;;;;;;;15.27;3.90;;;34.20;75.40;;;;;;5052710;28;20040;-76
2023/07/04 09:59:50;;;;;;;18.35;5.78;;;34.10;74.60;;;;;;5052680;28;20083;-73
2023/07/04 10:03:03;;;;;;;13.65;3.92;;;34.50;74.50;;;;;;5052717;28;20385;-74
2023/07/04 10:06:09;;;;;;;13.15;3.97;;;35.10;74.10;;;;;;5052794;28;20056;-75
2023/07/04 10:09:19;;;;;;;8.15;3.30;;;35.40;74.20;;;;;;5052554;28;20416;-76
2023/07/04 10:12:25;;;;;;;14.00;4.57;;;35.40;73.50;;;;;;5052613;28;20048;-75
2023/07/04 10:15:37;;;;;;;11.68;3.92;;;35.10;74.30;;;;;;5052592;28;20048;-74
2023/07/04 10:18:41;;;;;;;13.48;4.30;;;34.80;74.50;;;;;;5052191;28;20504;-75
2023/07/04 10:21:50;;;;;;;12.98;4.30;;;34.50;74.70;;;;;;5052072;28;20500;-75
2023/07/04 10:24:55;;;;;;;9.25;5.00;;;34.80;75.30;;;;;;5052176;28;20052;-77
2023/07/04 10:28:13;;;;;;;19.50;9.48;;;34.90;74.70;;;;;;5052299;28;20047;-74
2023/07/04 10:31:21;;;;;;;22.73;8.30;;;35.40;74.30;;;;;;5052408;28;20051;-74
2023/07/04 10:34:26;;;;;;;11.35;4.18;;;35.20;74.20;;;;;;5049458;28;20040;-74
2023/07/04 10:37:34;;;;;;;11.48;4.57;;;34.50;75.00;;;;;;5051945;28;20500;-74
2023/07/04 10:40:39;;;;;;;11.00;4.28;;;34.10;75.90;;;;;;5051532;28;20056;-74
2023/07/04 10:43:49;;;;;;;11.25;4.70;;;33.80;76.70;;;;;;5051934;28;20052;-74
2023/07/04 10:47:05;;;;;;;13.50;4.50;;;33.40;76.80;;;;;;5051510;28;20047;-75
2023/07/04 10:50:25;;;;;;;10.95;4.57;;;33.10;77.60;;;;;;5050574;28;20395;-73
2023/07/04 10:53:29;;;;;;;10.48;4.85;;;32.90;77.80;;;;;;5052064;28;20591;-74
2023/07/04 10:56:36;;;;;;;12.93;4.72;;;32.80;77.60;;;;;;5050316;28;20500;-71
2023/07/04 10:59:44;;;;;;;13.63;4.95;;;32.80;78.00;;;;;;5050756;28;20420;-71
2023/07/04 11:03:04;;;;;;;12.07;4.43;;;32.80;77.10;;;;;;5051198;28;20048;-72
2023/07/04 11:06:13;;;;;;;12.68;4.97;;;32.70;77.20;;;;;;5051272;28;20059;-73
2023/07/04 11:09:18;;;;;;;11.60;4.87;;;32.60;76.20;;;;;;5050104;28;20393;-72
2023/07/04 11:12:26;;;;;;;10.75;4.90;;;32.50;76.20;;;;;;5049052;28;20048;-71
2023/07/04 11:15:34;;;;;;;17.38;5.47;;;32.50;76.20;;;;;;5049805;28;20495;-72
2023/07/04 11:18:43;;;;;;;8.40;4.18;;;32.40;76.20;;;;;;5049631;28;20052;-73
2023/07/04 11:22:07;;;;;;;8.27;4.50;;;32.30;75.70;;;;;;5050195;28;20275;-72
2023/07/04 11:25:41;;;;;;;12.70;4.90;;;32.30;75.70;;;;;;5050529;28;20052;-74
2023/07/04 11:29:06;;;;;;;11.57;4.28;;;32.10;74.90;;;;;;5051004;28;20052;-73
2023/07/04 11:32:13;;;;;;;11.00;4.57;;;32.00;75.80;;;;;;5051169;28;20048;-72
2023/07/04 11:35:22;;;;;;;9.40;4.50;;;32.00;75.20;;;;;;5050953;28;20396;-77
2023/07/04 11:38:26;;;;;;;8.75;5.55;;;32.00;75.30;;;;;;5050938;28;20048;-71
2023/07/04 11:41:35;;;;;;;12.63;4.68;;;31.90;74.10;;;;;;5050970;28;20040;-71
2023/07/04 11:44:49;;;;;;;10.88;4.32;;;31.90;74.50;;;;;;5050834;28;20052;-72
2023/07/04 11:48:10;;;;;;;17.23;6.00;;;31.90;73.60;;;;;;5050928;28;20046;-71
2023/07/04 11:51:15;;;;;;;8.98;3.92;;;31.80;73.50;;;;;;5050160;28;20044;-72
2023/07/04 11:54:25;;;;;;;12.60;3.97;;;31.90;73.60;;;;;;5050714;28;20063;-72
2023/07/04 11:57:48;;;;;;;;;;;31.90;73.50;;;;;;5051381;28;20052;-73
2023/07/04 12:00:51;;;;;;;10.73;4.03;;;31.90;72.50;;;;;;5050614;28;19915;-73
2023/07/04 12:03:59;;;;;;;11.75;4.80;;;31.90;72.50;;;;;;5050710;28;20068;-73
2023/07/04 12:07:17;;;;;;;9.18;4.43;;;31.90;72.90;;;;;;5051004;28;20048;-72
2023/07/04 12:10:21;;;;;;;11.50;4.68;;;32.00;73.50;;;;;;5050473;28;20040;-73
2023/07/04 12:13:29;;;;;;;9.73;4.22;;;31.90;73.10;;;;;;5054085;28;20056;-72
2023/07/04 12:16:33;;;;;;;11.48;3.72;;;31.80;72.50;;;;;;5053845;28;20063;-72
2023/07/04 12:19:38;;;;;;;15.70;4.57;;;31.70;73.30;;;;;;5054179;28;20064;-71
2023/07/04 12:22:52;;;;;;;8.48;3.50;;;31.60;72.40;;;;;;5054442;28;20044;-72
2023/07/04 12:26:01;;;;;;;7.72;3.50;;;31.50;72.60;;;;;;5054406;28;20047;-72
2023/07/04 12:29:05;;;;;;;10.98;4.28;;;31.50;73.00;;;;;;5054368;28;20068;-71
2023/07/04 12:32:15;;;;;;;8.27;3.85;;;31.30;72.80;;;;;;5054289;28;20040;-73
2023/07/04 12:35:25;;;;;;;12.63;4.03;;;31.30;73.70;;;;;;5054433;28;20143;-72
2023/07/04 12:38:29;;;;;;;8.50;4.20;;;31.20;73.70;;;;;;5054143;28;20048;-72
2023/07/04 12:41:34;;;;;;;9.68;3.60;;;31.20;73.60;;;;;;5054302;28;20040;-73
2023/07/04 12:44:37;;;;;;;8.32;3.92;;;31.20;74.40;;;;;;5053975;28;20543;-79
2023/07/04 12:47:44;;;;;;;8.05;3.72;;;31.20;74.60;;;;;;5054752;28;20040;-78
2023/07/04 12:50:52;;;;;;;18.55;5.25;;;31.10;75.40;;;;;;5054090;28;20047;-74
2023/07/04 12:54:03;;;;;;;18.80;4.95;;;31.10;76.20;;;;;;5053246;28;20385;-73
2023/07/04 12:57:16;;;;;;;20.52;6.72;;;31.10;75.90;;;;;;5053281;28;20107;-75
2023/07/04 13:00:32;;;;;;;10.55;4.22;;;31.10;76.20;;;;;;5053766;28;20055;-72
2023/07/04 13:03:40;;;;;;;15.60;4.20;;;31.00;76.30;;;;;;5053657;28;20072;-72
2023/07/04 13:06:50;;;;;;;6.72;4.57;;;30.90;76.30;;;;;;5053668;28;20235;-71
2023/07/04 13:09:56;;;;;;;11.50;4.63;;;30.90;76.50;;;;;;5053900;28;20039;-73
2023/07/04 13:13:00;;;;;;;10.38;4.50;;;30.80;77.00;;;;;;5053662;28;20047;-71
2023/07/04 13:16:21;;;;;;;11.55;4.68;;;30.80;77.60;;;;;;5053687;28;20040;-72
2023/07/04 13:19:28;;;;;;;13.40;4.40;;;30.80;76.70;;;;;;5052452;28;20064;-73
2023/07/04 13:22:32;;;;;;;9.68;4.78;;;30.80;77.00;;;;;;5053343;28;20044;-72
2023/07/04 13:25:37;;;;;;;10.10;4.57;;;30.70;77.10;;;;;;5052943;28;20068;-72
2023/07/04 13:29:08;;;;;;;8.15;4.30;;;30.60;77.10;;;;;;5053231;28;20040;-73
2023/07/04 13:32:41;;;;;;;9.77;4.38;;;30.60;77.60;;;;;;5053453;28;20043;-72
2023/07/04 13:35:46;;;;;;;12.60;4.57;;;30.50;77.50;;;;;;5053210;28;20044;-72
2023/07/04 13:38:52;;;;;;;11.43;4.50;;;30.50;77.70;;;;;;5053001;28;20051;-73
2023/07/04 13:41:58;;;;;;;6.50;4.22;;;30.40;77.90;;;;;;5053270;28;20500;-73
2023/07/04 13:45:02;;;;;;;16.40;4.43;;;30.40;78.10;;;;;;5053076;28;20055;-73
2023/07/04 13:48:07;;;;;;;11.32;5.53;;;30.40;78.10;;;;;;5052454;28;20052;-73
2023/07/04 13:51:12;;;;;;;11.13;4.65;;;30.40;78.20;;;;;;5052859;28;20043;-73
2023/07/04 13:54:16;;;;;;;10.70;4.55;;;30.50;78.50;;;;;;5052842;28;20051;-73
2023/07/04 13:57:21;;;;;;;11.50;4.28;;;30.50;78.80;;;;;;5052674;28;20044;-72
2023/07/04 14:00:25;;;;;;;10.35;4.53;;;30.40;76.80;;;;;;5052671;28;20048;-72
2023/07/04 14:03:31;;;;;;;10.10;4.97;;;30.30;77.40;;;;;;5051898;28;20048;-74
2023/07/04 14:06:35;;;;;;;15.75;5.28;;;30.40;78.50;;;;;;5052507;28;20060;-74
2023/07/04 14:09:39;;;;;;;18.23;5.60;;;30.40;78.40;;;;;;5051984;28;20044;-76
2023/07/04 14:12:43;;;;;;;13.90;5.50;;;30.20;78.70;;;;;;5053609;28;20464;-80
2023/07/04 14:15:55;;;;;;;19.10;6.43;;;30.60;77.80;;;;;;5053996;28;20035;-76
2023/07/04 14:18:59;;;;;;;14.18;5.93;;;31.50;77.60;;;;;;5052385;28;20203;-78
2023/07/04 14:22:03;;;;;;;15.65;5.90;;;32.40;75.40;;;;;;5053226;28;20048;-84
2023/07/04 14:25:07;;;;;;;23.05;6.40;;;32.80;73.80;;;;;;5055224;28;20068;-78
2023/07/04 14:28:11;;;;;;;16.42;6.22;;;33.00;73.80;;;;;;5055891;28;20044;-76
2023/07/04 14:31:15;;;;;;;19.25;7.28;;;33.00;74.20;;;;;;5053080;28;20480;-79
2023/07/04 14:34:20;;;;;;;12.00;5.88;;;32.80;74.30;;;;;;5056549;28;20516;-86
2023/07/04 14:37:24;;;;;;;14.80;5.93;;;32.70;74.80;;;;;;5052890;28;20056;-81
2023/07/04 14:40:30;;;;;;;15.40;6.70;;;33.40;74.40;;;;;;5051981;28;20099;-80
2023/07/04 14:43:34;;;;;;;13.73;6.13;;;33.40;74.10;;;;;;5052892;28;20044;-76
2023/07/04 14:46:38;;;;;;;17.55;6.90;;;33.20;74.30;;;;;;5052166;28;20056;-74
2023/07/04 14:49:43;;;;;;;12.27;6.22;;;33.00;74.00;;;;;;5052144;28;20043;-75
2023/07/04 14:52:47;;;;;;;12.90;6.07;;;33.30;74.70;;;;;;5052581;28;20146;-84
2023/07/04 14:55:57;;;;;;;15.57;6.47;;;33.10;74.80;;;;;;5052306;28;20059;-82
2023/07/04 14:59:01;;;;;;;;;;;33.30;74.70;;;;;;5052157;28;20052;-75
2023/07/04 15:02:05;;;;;;;17.70;6.97;;;33.00;74.20;;;;;;5052173;28;20277;-78
2023/07/04 15:05:12;;;;;;;21.58;6.82;;;32.60;74.60;;;;;;5052515;28;20138;-82
2023/07/04 15:08:16;;;;;;;17.60;6.20;;;33.00;74.90;;;;;;5052597;28;20116;-76
2023/07/04 15:11:23;;;;;;;19.80;6.90;;;33.10;75.20;;;;;;5051647;28;20044;-76
2023/07/04 15:14:26;;;;;;;14.35;6.47;;;33.20;74.40;;;;;;5052571;28;20032;-74
2023/07/04 15:17:30;;;;;;;12.73;6.55;;;33.40;74.00;;;;;;5051191;28;20040;-77
2023/07/04 15:20:34;;;;;;;11.02;5.97;;;33.70;74.00;;;;;;5051208;28;20048;-76
2023/07/04 15:23:38;;;;;;;14.43;5.78;;;33.70;73.80;;;;;;5051121;28;20044;-75
2023/07/04 15:26:44;;;;;;;15.57;5.70;;;33.90;72.60;;;;;;5050452;28;20041;-78
2023/07/04 15:29:48;;;;;;;16.17;6.57;;;33.50;72.40;;;;;;5051301;28;20040;-75
2023/07/04 15:32:53;;;;;;;8.75;5.53;;;33.30;74.20;;;;;;5051265;28;20040;-75
2023/07/04 15:35:57;;;;;;;19.02;5.95;;;33.10;74.20;;;;;;5050998;28;20048;-78
2023/07/04 15:39:01;;;;;;;12.65;6.60;;;33.30;73.70;;;;;;5051802;28;20048;-74
2023/07/04 15:42:05;;;;;;;17.52;5.88;;;33.70;74.00;;;;;;5051652;28;20048;-73
2023/07/04 15:45:11;;;;;;;12.30;5.45;;;33.80;73.80;;;;;;5051115;28;20048;-72
2023/07/04 15:48:15;;;;;;;16.35;6.00;;;33.90;74.00;;;;;;5049840;28;20044;-73
2023/07/04 15:51:21;;;;;;;15.68;6.80;;;33.90;74.20;;;;;;5050851;28;20048;-74
2023/07/04 15:54:26;;;;;;;14.80;5.82;;;33.80;73.90;;;;;;5050766;28;20512;-74
2023/07/04 15:57:30;;;;;;;10.75;5.68;;;33.80;74.30;;;;;;5050577;28;20059;-82
2023/07/04 16:00:37;;;;;;;15.25;5.75;;;33.80;74.20;;;;;;5051841;28;20048;-83